createdAt,value
2022-09-16T00:04:37.689Z,12.80
2022-09-16T00:09:40.545Z,12.80
2022-09-16T00:14:46.353Z,12.80
2022-09-16T00:19:51.936Z,12.70
2022-09-16T00:24:57.068Z,12.70
2022-09-16T00:30:00.939Z,12.70
2022-09-16T00:35:05.645Z,12.60
2022-09-16T00:40:09.571Z,12.60
2022-09-16T00:45:19.272Z,12.70
2022-09-16T00:50:29.341Z,12.70
2022-09-16T00:55:36.981Z,12.70
2022-09-16T01:00:41.052Z,12.70
2022-09-16T01:05:43.518Z,12.80
2022-09-16T01:10:45.750Z,12.80
2022-09-16T01:16:02.251Z,12.80
2022-09-16T01:21:29.372Z,12.90
2022-09-16T01:27:06.694Z,12.90
2022-09-16T01:32:16.343Z,12.90
2022-09-16T01:37:35.140Z,12.80
2022-09-16T01:42:48.080Z,12.80
2022-09-16T01:48:05.594Z,12.90
2022-09-16T01:53:21.719Z,12.80
2022-09-16T01:58:38.034Z,12.80
2022-09-16T02:03:50.464Z,12.70
2022-09-16T02:09:14.680Z,12.70
2022-09-16T02:14:22.306Z,12.80
2022-09-16T02:19:51.541Z,12.70
2022-09-16T02:25:09.192Z,12.70
2022-09-16T02:30:21.327Z,12.60
2022-09-16T02:35:36.671Z,12.60
2022-09-16T02:40:48.725Z,12.60
2022-09-16T02:46:16.744Z,12.60
2022-09-16T02:51:39.992Z,12.70
2022-09-16T02:56:50.939Z,12.70
2022-09-16T03:01:55.824Z,12.60
2022-09-16T03:07:20.342Z,12.70
2022-09-16T03:13:23.707Z,12.60
2022-09-16T03:19:08.595Z,12.60
2022-09-16T03:24:36.989Z,12.60
2022-09-16T03:29:46.908Z,12.60
2022-09-16T03:35:27.498Z,12.60
2022-09-16T03:40:38.167Z,12.60
2022-09-16T03:45:50.636Z,12.50
2022-09-16T03:51:10.177Z,12.60
2022-09-16T03:56:30.463Z,12.60
2022-09-16T04:01:52.297Z,12.70
2022-09-16T04:06:58.561Z,12.70
2022-09-16T04:12:16.443Z,12.60
2022-09-16T04:17:39.313Z,12.60
2022-09-16T04:23:12.796Z,12.60
2022-09-16T04:28:27.087Z,12.60
2022-09-16T04:33:42.429Z,12.60
2022-09-16T04:44:37.215Z,12.50
2022-09-16T04:49:52.076Z,12.60
2022-09-16T04:55:07.917Z,12.60
2022-09-16T05:00:26.275Z,12.60
2022-09-16T05:05:32.287Z,12.60
2022-09-16T05:11:03.202Z,12.60
2022-09-16T05:16:23.982Z,12.50
2022-09-16T05:21:38.036Z,12.50
2022-09-16T05:27:01.397Z,12.50
2022-09-16T05:32:11.452Z,12.50
2022-09-16T05:37:14.401Z,12.50
2022-09-16T05:42:17.420Z,13.20
2022-09-16T05:47:27.007Z,13.80
2022-09-16T05:52:34.399Z,14.30
2022-09-16T05:57:37.788Z,14.50
2022-09-16T06:02:46.682Z,14.80
2022-09-16T06:07:55.154Z,14.90
2022-09-16T06:13:23.559Z,15.20
2022-09-16T06:18:34.395Z,15.30
2022-09-16T06:23:50.668Z,15.30
2022-09-16T06:34:13.203Z,14.60
2022-09-16T06:39:27.033Z,14.80
2022-09-16T06:44:36.237Z,15.10
2022-09-16T06:50:07.294Z,15.30
2022-09-16T06:55:14.455Z,15.50
2022-09-16T07:01:02.061Z,15.40
2022-09-16T07:49:07.348Z,15.00
2022-09-16T07:55:02.953Z,15.20
2022-09-16T08:07:24.194Z,15.30
2022-09-16T08:13:18.471Z,15.10
2022-09-16T08:19:33.722Z,15.00
2022-09-16T08:31:20.439Z,15.00
2022-09-16T08:36:48.214Z,15.30
2022-09-16T08:42:30.425Z,15.30
2022-09-16T08:47:46.478Z,16.30
2022-09-16T08:52:51.206Z,17.20
2022-09-16T08:57:59.440Z,17.70
2022-09-16T09:03:11.769Z,18.00
2022-09-16T09:08:35.036Z,18.20
2022-09-16T09:13:49.816Z,18.40
2022-09-16T09:19:04.572Z,18.50
2022-09-16T09:24:30.483Z,18.50
2022-09-16T09:29:59.266Z,18.20
2022-09-16T09:35:16.043Z,17.70
2022-09-16T09:40:27.770Z,17.40
2022-09-16T09:45:34.590Z,17.20
2022-09-16T09:50:42.574Z,17.60
2022-09-16T09:55:46.040Z,17.90
2022-09-16T10:00:48.181Z,17.80
2022-09-16T10:05:51.029Z,17.60
2022-09-16T10:10:57.119Z,17.20
2022-09-16T10:16:12.824Z,17.20
2022-09-16T10:21:19.270Z,17.50
2022-09-16T10:26:26.255Z,17.60
2022-09-16T10:31:36.748Z,17.70
2022-09-16T10:36:42.869Z,17.60
2022-09-16T10:41:50.030Z,17.60
2022-09-16T10:46:57.658Z,17.90
2022-09-16T10:58:31.740Z,17.70
2022-09-16T11:04:11.689Z,17.30
2022-09-16T11:09:22.732Z,17.10
2022-09-16T11:21:18.042Z,16.80
2022-09-16T11:26:50.387Z,16.90
2022-09-16T11:32:40.552Z,16.90
2022-09-16T11:38:20.757Z,17.10
2022-09-16T11:44:14.622Z,17.20
2022-09-16T11:50:34.639Z,17.10
2022-09-16T11:56:41.800Z,17.00
2022-09-16T12:02:01.643Z,17.10
2022-09-16T12:13:46.471Z,17.70
2022-09-16T12:19:20.853Z,17.80
2022-09-16T12:24:41.381Z,17.80
2022-09-16T12:30:28.697Z,17.60
2022-09-16T12:48:26.379Z,18.70
2022-09-16T12:54:19.808Z,18.30
2022-09-16T13:00:11.300Z,18.00
2022-09-16T13:05:46.340Z,17.80
2022-09-16T13:23:02.089Z,17.60
2022-09-16T13:28:34.815Z,17.70
2022-09-16T13:33:59.121Z,17.60
2022-09-16T13:39:32.380Z,17.60
2022-09-16T13:45:29.617Z,17.40
2022-09-16T13:51:10.276Z,17.20
2022-09-16T13:56:56.768Z,17.20
2022-09-16T14:02:20.464Z,17.20
2022-09-16T14:07:36.282Z,17.30
2022-09-16T14:19:20.693Z,17.50
2022-09-16T14:25:00.653Z,17.60
2022-09-16T14:30:51.929Z,17.70
2022-09-16T14:36:55.565Z,17.50
2022-09-16T14:42:45.427Z,17.40
2022-09-16T14:53:36.282Z,17.20
2022-09-16T14:58:56.148Z,17.20
2022-09-16T15:10:02.791Z,16.90
2022-09-16T15:15:38.880Z,16.90
2022-09-16T15:21:17.284Z,16.90
2022-09-16T15:32:38.909Z,16.80
2022-09-16T15:44:15.681Z,16.60
2022-09-16T15:49:29.341Z,16.50
2022-09-16T15:54:40.852Z,16.40
2022-09-16T16:00:46.155Z,16.50
2022-09-16T16:06:11.005Z,16.40
2022-09-16T16:11:40.754Z,16.50
2022-09-16T16:17:12.821Z,16.50
2022-09-16T16:22:29.885Z,16.40
2022-09-16T16:27:53.564Z,16.30
2022-09-16T16:33:17.393Z,16.20
2022-09-16T16:44:18.861Z,16.10
2022-09-16T16:49:29.609Z,16.10
2022-09-16T16:55:02.036Z,15.80
2022-09-16T17:00:31.020Z,15.70
2022-09-16T17:11:33.421Z,15.30
2022-09-16T17:17:32.099Z,15.20
2022-09-16T17:22:41.850Z,15.10
2022-09-16T17:28:03.559Z,15.00
2022-09-16T17:45:01.168Z,14.30
2022-09-16T17:50:29.822Z,13.80
2022-09-16T17:55:51.660Z,13.50
2022-09-16T18:01:02.058Z,13.20
2022-09-16T18:06:24.167Z,13.00
2022-09-16T18:12:01.613Z,12.90
2022-09-16T18:17:21.409Z,12.90
2022-09-16T18:28:10.808Z,13.00
2022-09-16T18:33:32.916Z,13.00
2022-09-16T18:39:08.987Z,13.00
2022-09-16T18:44:27.858Z,13.10
2022-09-16T18:49:37.939Z,13.10
2022-09-16T18:54:49.091Z,13.00
2022-09-16T19:00:06.734Z,12.80
2022-09-16T19:22:21.573Z,12.20
2022-09-16T19:27:43.000Z,12.00
2022-09-16T19:33:07.226Z,11.90
2022-09-16T19:38:15.536Z,11.70
2022-09-16T19:43:49.991Z,11.60
2022-09-16T19:49:19.204Z,11.40
2022-09-16T19:55:02.244Z,11.30
2022-09-16T20:00:36.572Z,11.20
2022-09-16T20:06:09.847Z,11.10
2022-09-16T20:11:30.524Z,11.00
2022-09-16T20:17:00.424Z,11.00
2022-09-16T20:22:07.439Z,10.90
2022-09-16T20:27:17.093Z,10.80
2022-09-16T20:32:44.742Z,10.70
2022-09-16T20:38:02.352Z,10.80
2022-09-16T20:43:15.916Z,10.70
2022-09-16T20:48:45.467Z,10.70
2022-09-16T20:54:14.480Z,10.70
2022-09-16T21:05:34.619Z,10.60
2022-09-16T21:10:51.839Z,10.70
2022-09-16T21:16:29.797Z,10.70
2022-09-16T21:21:54.213Z,10.60
2022-09-16T21:27:16.532Z,10.60
2022-09-16T21:32:35.084Z,10.60
2022-09-16T21:38:08.930Z,10.60
2022-09-16T21:43:33.592Z,10.60
2022-09-16T21:48:41.669Z,10.70
2022-09-16T21:54:29.061Z,10.70
2022-09-16T21:59:38.995Z,10.70
2022-09-16T22:05:08.315Z,10.70
2022-09-16T22:10:32.609Z,10.70
2022-09-16T22:27:24.120Z,10.60
2022-09-16T22:32:47.057Z,10.60
2022-09-16T22:43:46.855Z,10.70
2022-09-16T22:49:11.684Z,10.60
2022-09-16T23:00:17.494Z,10.60
2022-09-16T23:05:38.417Z,10.50
2022-09-16T23:11:03.467Z,10.50
2022-09-16T23:16:32.502Z,10.50
2022-09-16T23:27:29.516Z,10.50
2022-09-16T23:32:54.896Z,10.50
2022-09-16T23:38:10.261Z,10.50
2022-09-16T23:55:05.346Z,10.50
